Antakya, Turkey
Current Conditions -  °F | °C
As of 10:24 AM on Thursday 27 Nov 2014 (Local Time) from LTDA Reporting Station
Haze Haze  
Wind Chill:   Ceiling: Unl
Heat Index:   Visibility: 2.8mi
Dew Point:   Wind: 0mph
Humidity: 100%   Direction: NA
Pressure: 30.03"   Gusts: NA
Location:  36.2°N, 36.15°E
Report Text: LTDA 270824Z 00000KT 4500 BR SCT004 08/08 Q1017 RMK RWY04 00000KT
Loading
Personal Weather Stations






























Interactive Weather Map New forecast layout! Learn more

10-Day Weather Forecast

Advertisements
Track Severe Weather on mobile